sensor_id;sensor_type;location;lat;lon;timestamp;P1;durP1;ratioP1;P2;durP2;ratioP2
54745;SDS011;40640;48.130;11.356;2023-07-13T00:03:53;7.00;;;3.53;;
54745;SDS011;40640;48.130;11.356;2023-07-13T00:07:58;8.23;;;4.40;;
54745;SDS011;40640;48.130;11.356;2023-07-13T00:12:01;6.47;;;4.20;;
54745;SDS011;40640;48.130;11.356;2023-07-13T00:16:04;7.20;;;3.75;;
54745;SDS011;40640;48.130;11.356;2023-07-13T00:20:09;7.93;;;3.83;;
54745;SDS011;40640;48.130;11.356;2023-07-13T00:24:15;8.40;;;3.40;;
54745;SDS011;40640;48.130;11.356;2023-07-13T00:28:25;8.07;;;3.38;;
54745;SDS011;40640;48.130;11.356;2023-07-13T00:32:28;3.92;;;3.30;;
54745;SDS011;40640;48.130;11.356;2023-07-13T00:36:33;5.38;;;3.35;;
54745;SDS011;40640;48.130;11.356;2023-07-13T00:40:38;6.63;;;3.45;;
54745;SDS011;40640;48.130;11.356;2023-07-13T00:44:40;6.45;;;3.50;;
54745;SDS011;40640;48.130;11.356;2023-07-13T00:48:43;12.00;;;3.72;;
54745;SDS011;40640;48.130;11.356;2023-07-13T00:52:50;7.07;;;3.60;;
54745;SDS011;40640;48.130;11.356;2023-07-13T00:56:57;7.80;;;3.85;;
54745;SDS011;40640;48.130;11.356;2023-07-13T01:01:03;8.43;;;4.07;;
54745;SDS011;40640;48.130;11.356;2023-07-13T01:05:08;11.45;;;4.07;;
54745;SDS011;40640;48.130;11.356;2023-07-13T01:09:12;7.18;;;3.85;;
54745;SDS011;40640;48.130;11.356;2023-07-13T01:13:16;6.53;;;4.03;;
54745;SDS011;40640;48.130;11.356;2023-07-13T01:17:20;9.32;;;3.63;;
54745;SDS011;40640;48.130;11.356;2023-07-13T01:21:25;8.75;;;3.03;;
54745;SDS011;40640;48.130;11.356;2023-07-13T01:25:28;7.10;;;3.10;;
54745;SDS011;40640;48.130;11.356;2023-07-13T01:29:31;3.67;;;2.60;;
54745;SDS011;40640;48.130;11.356;2023-07-13T01:33:36;9.25;;;3.45;;
54745;SDS011;40640;48.130;11.356;2023-07-13T01:37:40;5.25;;;3.58;;
54745;SDS011;40640;48.130;11.356;2023-07-13T01:41:43;5.88;;;3.20;;
54745;SDS011;40640;48.130;11.356;2023-07-13T01:45:46;9.05;;;3.40;;
54745;SDS011;40640;48.130;11.356;2023-07-13T01:49:49;7.72;;;3.17;;
54745;SDS011;40640;48.130;11.356;2023-07-13T01:53:54;7.63;;;3.30;;
54745;SDS011;40640;48.130;11.356;2023-07-13T01:57:57;5.25;;;3.10;;
54745;SDS011;40640;48.130;11.356;2023-07-13T02:02:00;6.25;;;3.53;;
54745;SDS011;40640;48.130;11.356;2023-07-13T02:06:03;7.85;;;3.67;;
54745;SDS011;40640;48.130;11.356;2023-07-13T02:10:08;4.60;;;3.55;;
54745;SDS011;40640;48.130;11.356;2023-07-13T02:14:13;7.45;;;3.83;;
54745;SDS011;40640;48.130;11.356;2023-07-13T02:18:16;5.18;;;3.42;;
54745;SDS011;40640;48.130;11.356;2023-07-13T02:22:20;6.75;;;4.07;;
54745;SDS011;40640;48.130;11.356;2023-07-13T02:26:24;6.82;;;3.90;;
54745;SDS011;40640;48.130;11.356;2023-07-13T02:30:27;5.93;;;3.75;;
54745;SDS011;40640;48.130;11.356;2023-07-13T02:38:38;9.55;;;4.40;;
54745;SDS011;40640;48.130;11.356;2023-07-13T02:42:42;12.50;;;4.10;;
54745;SDS011;40640;48.130;11.356;2023-07-13T02:46:45;7.82;;;4.20;;
54745;SDS011;40640;48.130;11.356;2023-07-13T02:50:48;10.13;;;3.55;;
54745;SDS011;40640;48.130;11.356;2023-07-13T02:54:51;4.65;;;2.92;;
54745;SDS011;40640;48.130;11.356;2023-07-13T02:58:56;5.85;;;2.78;;
54745;SDS011;40640;48.130;11.356;2023-07-13T03:02:59;5.35;;;2.97;;
54745;SDS011;40640;48.130;11.356;2023-07-13T03:07:02;7.35;;;3.00;;
54745;SDS011;40640;48.130;11.356;2023-07-13T03:11:11;7.05;;;3.17;;
54745;SDS011;40640;48.130;11.356;2023-07-13T03:15:18;7.82;;;3.05;;
54745;SDS011;40640;48.130;11.356;2023-07-13T03:19:23;8.05;;;3.70;;
54745;SDS011;40640;48.130;11.356;2023-07-13T03:23:26;6.80;;;3.00;;
54745;SDS011;40640;48.130;11.356;2023-07-13T03:27:29;4.32;;;3.35;;
54745;SDS011;40640;48.130;11.356;2023-07-13T03:31:34;6.13;;;2.90;;
54745;SDS011;40640;48.130;11.356;2023-07-13T03:35:40;6.05;;;3.00;;
54745;SDS011;40640;48.130;11.356;2023-07-13T03:39:44;8.70;;;3.70;;
54745;SDS011;40640;48.130;11.356;2023-07-13T03:43:48;8.00;;;3.70;;
54745;SDS011;40640;48.130;11.356;2023-07-13T03:47:55;9.40;;;4.25;;
54745;SDS011;40640;48.130;11.356;2023-07-13T03:51:59;8.57;;;4.07;;
54745;SDS011;40640;48.130;11.356;2023-07-13T03:56:02;7.88;;;4.30;;
54745;SDS011;40640;48.130;11.356;2023-07-13T04:00:07;14.80;;;6.05;;
54745;SDS011;40640;48.130;11.356;2023-07-13T04:04:17;6.28;;;3.55;;
54745;SDS011;40640;48.130;11.356;2023-07-13T04:08:20;8.88;;;3.70;;
54745;SDS011;40640;48.130;11.356;2023-07-13T04:12:23;11.02;;;3.10;;
54745;SDS011;40640;48.130;11.356;2023-07-13T04:16:26;5.78;;;3.42;;
54745;SDS011;40640;48.130;11.356;2023-07-13T04:20:30;4.95;;;3.30;;
54745;SDS011;40640;48.130;11.356;2023-07-13T04:24:33;8.20;;;3.00;;
54745;SDS011;40640;48.130;11.356;2023-07-13T04:28:36;4.45;;;3.08;;
54745;SDS011;40640;48.130;11.356;2023-07-13T04:32:40;7.53;;;4.05;;
54745;SDS011;40640;48.130;11.356;2023-07-13T04:36:44;4.28;;;3.10;;
54745;SDS011;40640;48.130;11.356;2023-07-13T04:40:47;7.60;;;3.28;;
54745;SDS011;40640;48.130;11.356;2023-07-13T04:44:50;7.72;;;3.38;;
54745;SDS011;40640;48.130;11.356;2023-07-13T04:48:54;5.22;;;3.20;;
54745;SDS011;40640;48.130;11.356;2023-07-13T04:52:58;5.63;;;3.03;;
54745;SDS011;40640;48.130;11.356;2023-07-13T04:57:01;9.10;;;3.47;;
54745;SDS011;40640;48.130;11.356;2023-07-13T05:01:05;4.10;;;3.15;;
54745;SDS011;40640;48.130;11.356;2023-07-13T05:05:12;4.80;;;2.83;;
54745;SDS011;40640;48.130;11.356;2023-07-13T05:09:16;6.45;;;2.90;;
54745;SDS011;40640;48.130;11.356;2023-07-13T05:13:19;9.48;;;2.88;;
54745;SDS011;40640;48.130;11.356;2023-07-13T05:17:22;5.22;;;2.63;;
54745;SDS011;40640;48.130;11.356;2023-07-13T05:21:25;4.90;;;3.03;;
54745;SDS011;40640;48.130;11.356;2023-07-13T05:25:29;6.43;;;2.50;;
54745;SDS011;40640;48.130;11.356;2023-07-13T05:29:32;5.30;;;2.90;;
54745;SDS011;40640;48.130;11.356;2023-07-13T05:33:35;5.28;;;2.83;;
54745;SDS011;40640;48.130;11.356;2023-07-13T05:37:39;9.85;;;2.97;;
54745;SDS011;40640;48.130;11.356;2023-07-13T05:41:43;7.35;;;2.95;;
54745;SDS011;40640;48.130;11.356;2023-07-13T05:45:46;6.20;;;2.50;;
54745;SDS011;40640;48.130;11.356;2023-07-13T05:49:49;3.70;;;2.67;;
54745;SDS011;40640;48.130;11.356;2023-07-13T05:53:52;6.25;;;2.70;;
54745;SDS011;40640;48.130;11.356;2023-07-13T05:57:56;7.03;;;2.65;;
54745;SDS011;40640;48.130;11.356;2023-07-13T06:01:59;4.07;;;2.40;;
54745;SDS011;40640;48.130;11.356;2023-07-13T06:06:02;6.95;;;2.67;;
54745;SDS011;40640;48.130;11.356;2023-07-13T06:10:06;3.97;;;2.53;;
54745;SDS011;40640;48.130;11.356;2023-07-13T06:14:11;5.00;;;2.47;;
54745;SDS011;40640;48.130;11.356;2023-07-13T06:18:13;7.53;;;2.60;;
54745;SDS011;40640;48.130;11.356;2023-07-13T06:22:16;7.05;;;2.75;;
54745;SDS011;40640;48.130;11.356;2023-07-13T06:26:20;6.75;;;2.30;;
54745;SDS011;40640;48.130;11.356;2023-07-13T06:30:24;3.58;;;2.25;;
54745;SDS011;40640;48.130;11.356;2023-07-13T06:34:27;7.55;;;2.45;;
54745;SDS011;40640;48.130;11.356;2023-07-13T06:38:30;4.80;;;2.60;;
54745;SDS011;40640;48.130;11.356;2023-07-13T06:42:33;4.55;;;2.70;;
54745;SDS011;40640;48.130;11.356;2023-07-13T06:46:37;5.93;;;2.75;;
54745;SDS011;40640;48.130;11.356;2023-07-13T06:50:40;6.53;;;2.90;;
54745;SDS011;40640;48.130;11.356;2023-07-13T06:54:43;6.63;;;2.83;;
54745;SDS011;40640;48.130;11.356;2023-07-13T06:58:46;3.88;;;2.50;;
54745;SDS011;40640;48.130;11.356;2023-07-13T07:02:50;4.35;;;2.80;;
54745;SDS011;40640;48.130;11.356;2023-07-13T07:06:54;9.63;;;3.45;;
54745;SDS011;40640;48.130;11.356;2023-07-13T07:10:59;5.00;;;2.33;;
54745;SDS011;40640;48.130;11.356;2023-07-13T07:15:03;5.55;;;2.72;;
54745;SDS011;40640;48.130;11.356;2023-07-13T07:19:07;6.55;;;2.80;;
54745;SDS011;40640;48.130;11.356;2023-07-13T07:23:10;7.57;;;2.80;;
54745;SDS011;40640;48.130;11.356;2023-07-13T07:27:13;7.90;;;3.00;;
54745;SDS011;40640;48.130;11.356;2023-07-13T07:31:19;5.80;;;3.20;;
54745;SDS011;40640;48.130;11.356;2023-07-13T07:35:26;4.90;;;2.58;;
54745;SDS011;40640;48.130;11.356;2023-07-13T07:39:33;3.92;;;2.63;;
54745;SDS011;40640;48.130;11.356;2023-07-13T07:43:36;8.02;;;3.03;;
54745;SDS011;40640;48.130;11.356;2023-07-13T07:47:39;6.75;;;3.08;;
54745;SDS011;40640;48.130;11.356;2023-07-13T07:51:44;5.45;;;3.28;;
54745;SDS011;40640;48.130;11.356;2023-07-13T07:55:46;5.30;;;3.05;;
54745;SDS011;40640;48.130;11.356;2023-07-13T07:59:52;3.65;;;2.53;;
54745;SDS011;40640;48.130;11.356;2023-07-13T08:03:58;7.78;;;2.92;;
54745;SDS011;40640;48.130;11.356;2023-07-13T08:08:05;11.02;;;3.28;;
54745;SDS011;40640;48.130;11.356;2023-07-13T08:12:08;5.97;;;2.70;;
54745;SDS011;40640;48.130;11.356;2023-07-13T08:16:14;5.07;;;2.58;;
54745;SDS011;40640;48.130;11.356;2023-07-13T08:20:17;5.10;;;2.28;;
54745;SDS011;40640;48.130;11.356;2023-07-13T08:24:22;4.18;;;2.20;;
54745;SDS011;40640;48.130;11.356;2023-07-13T08:28:25;9.40;;;2.83;;
54745;SDS011;40640;48.130;11.356;2023-07-13T08:32:31;3.80;;;2.10;;
54745;SDS011;40640;48.130;11.356;2023-07-13T08:36:34;3.15;;;1.85;;
54745;SDS011;40640;48.130;11.356;2023-07-13T08:40:39;6.10;;;2.55;;
54745;SDS011;40640;48.130;11.356;2023-07-13T08:44:45;3.85;;;2.00;;
54745;SDS011;40640;48.130;11.356;2023-07-13T08:49:09;3.72;;;1.88;;
54745;SDS011;40640;48.130;11.356;2023-07-13T08:53:15;2.53;;;1.73;;
54745;SDS011;40640;48.130;11.356;2023-07-13T08:57:21;4.53;;;1.90;;
54745;SDS011;40640;48.130;11.356;2023-07-13T09:01:33;5.60;;;2.13;;
54745;SDS011;40640;48.130;11.356;2023-07-13T09:05:51;4.20;;;2.00;;
54745;SDS011;40640;48.130;11.356;2023-07-13T09:09:59;4.40;;;2.00;;
54745;SDS011;40640;48.130;11.356;2023-07-13T09:14:23;4.28;;;2.05;;
54745;SDS011;40640;48.130;11.356;2023-07-13T09:18:36;5.05;;;2.38;;
54745;SDS011;40640;48.130;11.356;2023-07-13T09:22:41;6.78;;;2.17;;
54745;SDS011;40640;48.130;11.356;2023-07-13T09:26:45;3.40;;;1.85;;
54745;SDS011;40640;48.130;11.356;2023-07-13T09:30:51;5.55;;;2.00;;
54745;SDS011;40640;48.130;11.356;2023-07-13T09:34:58;6.57;;;1.88;;
54745;SDS011;40640;48.130;11.356;2023-07-13T09:39:03;9.95;;;2.25;;
54745;SDS011;40640;48.130;11.356;2023-07-13T09:43:13;7.97;;;2.10;;
54745;SDS011;40640;48.130;11.356;2023-07-13T09:47:19;7.75;;;1.83;;
54745;SDS011;40640;48.130;11.356;2023-07-13T09:51:24;5.00;;;1.92;;
54745;SDS011;40640;48.130;11.356;2023-07-13T09:55:29;4.10;;;2.05;;
54745;SDS011;40640;48.130;11.356;2023-07-13T09:59:35;3.50;;;1.73;;
54745;SDS011;40640;48.130;11.356;2023-07-13T10:03:52;6.15;;;1.77;;
54745;SDS011;40640;48.130;11.356;2023-07-13T10:07:56;7.10;;;1.80;;
54745;SDS011;40640;48.130;11.356;2023-07-13T10:11:59;6.22;;;1.60;;
54745;SDS011;40640;48.130;11.356;2023-07-13T10:16:03;8.18;;;2.05;;
54745;SDS011;40640;48.130;11.356;2023-07-13T10:20:09;6.60;;;1.45;;
54745;SDS011;40640;48.130;11.356;2023-07-13T10:24:14;6.60;;;1.80;;
54745;SDS011;40640;48.130;11.356;2023-07-13T10:28:23;10.48;;;1.98;;
54745;SDS011;40640;48.130;11.356;2023-07-13T10:32:29;6.57;;;2.83;;
54745;SDS011;40640;48.130;11.356;2023-07-13T10:36:35;6.70;;;2.33;;
54745;SDS011;40640;48.130;11.356;2023-07-13T10:40:45;4.63;;;2.00;;
54745;SDS011;40640;48.130;11.356;2023-07-13T10:44:58;6.35;;;2.13;;
54745;SDS011;40640;48.130;11.356;2023-07-13T10:49:02;8.23;;;1.73;;
54745;SDS011;40640;48.130;11.356;2023-07-13T10:53:19;6.30;;;1.83;;
54745;SDS011;40640;48.130;11.356;2023-07-13T10:57:23;5.25;;;1.58;;
54745;SDS011;40640;48.130;11.356;2023-07-13T11:01:26;3.55;;;1.48;;
54745;SDS011;40640;48.130;11.356;2023-07-13T11:05:43;3.95;;;1.50;;
54745;SDS011;40640;48.130;11.356;2023-07-13T11:09:50;3.72;;;1.73;;
54745;SDS011;40640;48.130;11.356;2023-07-13T11:13:57;7.45;;;1.45;;
54745;SDS011;40640;48.130;11.356;2023-07-13T11:18:04;3.78;;;1.65;;
54745;SDS011;40640;48.130;11.356;2023-07-13T11:22:22;4.65;;;2.00;;
54745;SDS011;40640;48.130;11.356;2023-07-13T11:30:46;3.65;;;1.48;;
54745;SDS011;40640;48.130;11.356;2023-07-13T11:34:51;3.15;;;1.65;;
54745;SDS011;40640;48.130;11.356;2023-07-13T11:38:58;2.95;;;1.42;;
54745;SDS011;40640;48.130;11.356;2023-07-13T11:43:05;4.70;;;1.60;;
54745;SDS011;40640;48.130;11.356;2023-07-13T11:47:10;7.43;;;2.22;;
54745;SDS011;40640;48.130;11.356;2023-07-13T11:55:21;5.25;;;1.60;;
54745;SDS011;40640;48.130;11.356;2023-07-13T11:59:27;5.18;;;1.30;;
54745;SDS011;40640;48.130;11.356;2023-07-13T12:03:33;4.13;;;1.20;;
54745;SDS011;40640;48.130;11.356;2023-07-13T12:07:37;3.90;;;1.67;;
54745;SDS011;40640;48.130;11.356;2023-07-13T12:11:41;2.17;;;1.20;;
54745;SDS011;40640;48.130;11.356;2023-07-13T12:15:47;3.28;;;1.45;;
54745;SDS011;40640;48.130;11.356;2023-07-13T12:19:53;3.13;;;1.50;;
54745;SDS011;40640;48.130;11.356;2023-07-13T12:23:56;20.60;;;1.98;;
54745;SDS011;40640;48.130;11.356;2023-07-13T12:27:59;7.38;;;1.80;;
54745;SDS011;40640;48.130;11.356;2023-07-13T12:32:23;5.72;;;1.40;;
54745;SDS011;40640;48.130;11.356;2023-07-13T12:36:29;5.63;;;1.60;;
54745;SDS011;40640;48.130;11.356;2023-07-13T12:40:34;5.82;;;1.40;;
54745;SDS011;40640;48.130;11.356;2023-07-13T12:44:39;3.53;;;1.40;;
54745;SDS011;40640;48.130;11.356;2023-07-13T12:48:47;3.15;;;1.30;;
54745;SDS011;40640;48.130;11.356;2023-07-13T12:53:12;6.93;;;1.87;;
54745;SDS011;40640;48.130;11.356;2023-07-13T12:57:16;7.00;;;1.42;;
54745;SDS011;40640;48.130;11.356;2023-07-13T13:01:20;5.95;;;1.40;;
54745;SDS011;40640;48.130;11.356;2023-07-13T13:05:26;3.00;;;1.50;;
54745;SDS011;40640;48.130;11.356;2023-07-13T13:09:29;4.03;;;1.30;;
54745;SDS011;40640;48.130;11.356;2023-07-13T13:13:32;5.63;;;1.42;;
54745;SDS011;40640;48.130;11.356;2023-07-13T13:17:35;3.63;;;1.42;;
54745;SDS011;40640;48.130;11.356;2023-07-13T13:21:39;5.85;;;1.60;;
54745;SDS011;40640;48.130;11.356;2023-07-13T13:25:43;3.70;;;1.02;;
54745;SDS011;40640;48.130;11.356;2023-07-13T13:29:47;5.80;;;1.30;;
54745;SDS011;40640;48.130;11.356;2023-07-13T13:33:52;3.72;;;1.40;;
54745;SDS011;40640;48.130;11.356;2023-07-13T13:37:57;2.17;;;1.55;;
54745;SDS011;40640;48.130;11.356;2023-07-13T13:42:00;4.18;;;1.65;;
54745;SDS011;40640;48.130;11.356;2023-07-13T13:46:03;6.35;;;1.55;;
54745;SDS011;40640;48.130;11.356;2023-07-13T13:50:17;3.97;;;1.45;;
54745;SDS011;40640;48.130;11.356;2023-07-13T13:54:23;3.53;;;1.48;;
54745;SDS011;40640;48.130;11.356;2023-07-13T13:58:27;2.35;;;1.65;;
54745;SDS011;40640;48.130;11.356;2023-07-13T14:02:32;1.88;;;1.27;;
54745;SDS011;40640;48.130;11.356;2023-07-13T14:06:35;2.63;;;1.35;;
54745;SDS011;40640;48.130;11.356;2023-07-13T14:10:41;3.53;;;1.40;;
54745;SDS011;40640;48.130;11.356;2023-07-13T14:14:44;7.40;;;1.90;;
54745;SDS011;40640;48.130;11.356;2023-07-13T14:18:48;3.40;;;1.60;;
54745;SDS011;40640;48.130;11.356;2023-07-13T14:22:52;6.38;;;2.75;;
54745;SDS011;40640;48.130;11.356;2023-07-13T14:26:57;6.18;;;1.48;;
54745;SDS011;40640;48.130;11.356;2023-07-13T14:31:00;5.45;;;1.25;;
54745;SDS011;40640;48.130;11.356;2023-07-13T14:35:03;6.28;;;1.40;;
54745;SDS011;40640;48.130;11.356;2023-07-13T14:39:10;2.30;;;1.30;;
54745;SDS011;40640;48.130;11.356;2023-07-13T14:43:18;4.50;;;1.77;;
54745;SDS011;40640;48.130;11.356;2023-07-13T14:47:20;2.20;;;1.75;;
54745;SDS011;40640;48.130;11.356;2023-07-13T14:51:23;4.80;;;1.55;;
54745;SDS011;40640;48.130;11.356;2023-07-13T14:55:26;6.63;;;1.60;;
54745;SDS011;40640;48.130;11.356;2023-07-13T14:59:30;2.53;;;1.27;;
54745;SDS011;40640;48.130;11.356;2023-07-13T15:03:33;2.45;;;1.20;;
54745;SDS011;40640;48.130;11.356;2023-07-13T15:07:40;3.35;;;1.77;;
54745;SDS011;40640;48.130;11.356;2023-07-13T15:11:43;6.38;;;1.55;;
54745;SDS011;40640;48.130;11.356;2023-07-13T15:15:47;7.03;;;1.90;;
54745;SDS011;40640;48.130;11.356;2023-07-13T15:19:52;4.22;;;1.77;;
54745;SDS011;40640;48.130;11.356;2023-07-13T15:23:55;8.98;;;1.60;;
54745;SDS011;40640;48.130;11.356;2023-07-13T15:27:58;4.47;;;1.85;;
54745;SDS011;40640;48.130;11.356;2023-07-13T15:32:04;6.30;;;1.80;;
54745;SDS011;40640;48.130;11.356;2023-07-13T15:36:11;4.60;;;1.65;;
54745;SDS011;40640;48.130;11.356;2023-07-13T15:40:14;3.75;;;1.70;;
54745;SDS011;40640;48.130;11.356;2023-07-13T15:44:22;3.53;;;1.70;;
54745;SDS011;40640;48.130;11.356;2023-07-13T15:48:29;3.15;;;1.60;;
54745;SDS011;40640;48.130;11.356;2023-07-13T15:52:32;2.40;;;1.60;;
54745;SDS011;40640;48.130;11.356;2023-07-13T15:56:36;3.83;;;1.52;;
54745;SDS011;40640;48.130;11.356;2023-07-13T16:04:45;3.88;;;1.65;;
54745;SDS011;40640;48.130;11.356;2023-07-13T16:08:49;5.32;;;1.85;;
54745;SDS011;40640;48.130;11.356;2023-07-13T16:12:52;4.93;;;1.58;;
54745;SDS011;40640;48.130;11.356;2023-07-13T16:16:56;4.82;;;1.40;;
54745;SDS011;40640;48.130;11.356;2023-07-13T16:21:00;3.83;;;1.60;;
54745;SDS011;40640;48.130;11.356;2023-07-13T16:25:09;3.20;;;1.40;;
54745;SDS011;40640;48.130;11.356;2023-07-13T16:29:16;3.65;;;1.70;;
54745;SDS011;40640;48.130;11.356;2023-07-13T16:33:20;4.13;;;2.15;;
54745;SDS011;40640;48.130;11.356;2023-07-13T16:37:26;6.47;;;2.10;;
54745;SDS011;40640;48.130;11.356;2023-07-13T16:41:31;4.85;;;1.70;;
54745;SDS011;40640;48.130;11.356;2023-07-13T16:45:34;5.05;;;1.90;;
54745;SDS011;40640;48.130;11.356;2023-07-13T16:49:37;8.73;;;1.92;;
54745;SDS011;40640;48.130;11.356;2023-07-13T16:53:43;3.83;;;1.73;;
54745;SDS011;40640;48.130;11.356;2023-07-13T16:57:45;2.13;;;1.60;;
54745;SDS011;40640;48.130;11.356;2023-07-13T17:01:49;5.85;;;1.60;;
54745;SDS011;40640;48.130;11.356;2023-07-13T17:05:52;5.30;;;1.60;;
54745;SDS011;40640;48.130;11.356;2023-07-13T17:09:57;10.15;;;2.00;;
54745;SDS011;40640;48.130;11.356;2023-07-13T17:14:01;3.03;;;2.10;;
54745;SDS011;40640;48.130;11.356;2023-07-13T17:18:08;3.83;;;1.70;;
54745;SDS011;40640;48.130;11.356;2023-07-13T17:26:20;9.57;;;1.80;;
54745;SDS011;40640;48.130;11.356;2023-07-13T17:30:23;3.15;;;1.60;;
54745;SDS011;40640;48.130;11.356;2023-07-13T17:34:26;2.33;;;1.60;;
54745;SDS011;40640;48.130;11.356;2023-07-13T17:38:30;2.55;;;1.70;;
54745;SDS011;40640;48.130;11.356;2023-07-13T17:42:38;3.90;;;2.03;;
54745;SDS011;40640;48.130;11.356;2023-07-13T17:46:41;4.05;;;1.63;;
54745;SDS011;40640;48.130;11.356;2023-07-13T17:50:46;7.30;;;1.67;;
54745;SDS011;40640;48.130;11.356;2023-07-13T17:54:51;5.15;;;1.80;;
54745;SDS011;40640;48.130;11.356;2023-07-13T17:58:55;4.38;;;1.80;;
54745;SDS011;40640;48.130;11.356;2023-07-13T18:02:58;4.72;;;1.70;;
54745;SDS011;40640;48.130;11.356;2023-07-13T18:07:06;3.78;;;1.77;;
54745;SDS011;40640;48.130;11.356;2023-07-13T18:11:18;5.72;;;1.70;;
54745;SDS011;40640;48.130;11.356;2023-07-13T18:15:23;5.28;;;2.00;;
54745;SDS011;40640;48.130;11.356;2023-07-13T18:19:30;4.95;;;1.77;;
54745;SDS011;40640;48.130;11.356;2023-07-13T18:23:35;4.15;;;1.70;;
54745;SDS011;40640;48.130;11.356;2023-07-13T18:27:38;3.95;;;1.70;;
54745;SDS011;40640;48.130;11.356;2023-07-13T18:31:42;7.47;;;1.83;;
54745;SDS011;40640;48.130;11.356;2023-07-13T18:35:46;2.43;;;1.80;;
54745;SDS011;40640;48.130;11.356;2023-07-13T18:39:50;4.18;;;1.88;;
54745;SDS011;40640;48.130;11.356;2023-07-13T18:43:54;3.95;;;2.45;;
54745;SDS011;40640;48.130;11.356;2023-07-13T18:47:58;6.45;;;2.38;;
54745;SDS011;40640;48.130;11.356;2023-07-13T18:52:02;4.88;;;1.95;;
54745;SDS011;40640;48.130;11.356;2023-07-13T18:56:07;7.05;;;2.40;;
54745;SDS011;40640;48.130;11.356;2023-07-13T19:00:13;5.10;;;2.17;;
54745;SDS011;40640;48.130;11.356;2023-07-13T19:04:23;3.88;;;1.80;;
54745;SDS011;40640;48.130;11.356;2023-07-13T19:08:29;6.03;;;1.90;;
54745;SDS011;40640;48.130;11.356;2023-07-13T19:12:32;6.03;;;2.13;;
54745;SDS011;40640;48.130;11.356;2023-07-13T19:16:36;4.40;;;2.58;;
54745;SDS011;40640;48.130;11.356;2023-07-13T19:20:41;3.28;;;2.10;;
54745;SDS011;40640;48.130;11.356;2023-07-13T19:24:44;3.63;;;2.00;;
54745;SDS011;40640;48.130;11.356;2023-07-13T19:28:49;6.82;;;3.33;;
54745;SDS011;40640;48.130;11.356;2023-07-13T19:32:53;5.15;;;2.28;;
54745;SDS011;40640;48.130;11.356;2023-07-13T19:36:58;3.85;;;2.05;;
54745;SDS011;40640;48.130;11.356;2023-07-13T19:41:04;5.68;;;2.60;;
54745;SDS011;40640;48.130;11.356;2023-07-13T19:45:13;3.92;;;2.25;;
54745;SDS011;40640;48.130;11.356;2023-07-13T19:49:17;6.25;;;2.47;;
54745;SDS011;40640;48.130;11.356;2023-07-13T19:53:21;6.38;;;2.40;;
54745;SDS011;40640;48.130;11.356;2023-07-13T19:57:25;6.53;;;2.75;;
54745;SDS011;40640;48.130;11.356;2023-07-13T20:01:29;5.70;;;2.25;;
54745;SDS011;40640;48.130;11.356;2023-07-13T20:05:33;5.30;;;2.10;;
54745;SDS011;40640;48.130;11.356;2023-07-13T20:09:39;5.47;;;2.20;;
54745;SDS011;40640;48.130;11.356;2023-07-13T20:13:47;4.57;;;2.00;;
54745;SDS011;40640;48.130;11.356;2023-07-13T20:17:51;6.10;;;2.38;;
54745;SDS011;40640;48.130;11.356;2023-07-13T20:21:55;5.15;;;2.55;;
54745;SDS011;40640;48.130;11.356;2023-07-13T20:26:00;8.05;;;2.70;;
54745;SDS011;40640;48.130;11.356;2023-07-13T20:30:03;6.35;;;2.58;;
54745;SDS011;40640;48.130;11.356;2023-07-13T20:34:08;6.57;;;2.80;;
54745;SDS011;40640;48.130;11.356;2023-07-13T20:38:20;4.60;;;2.92;;
54745;SDS011;40640;48.130;11.356;2023-07-13T20:42:25;5.68;;;2.50;;
54745;SDS011;40640;48.130;11.356;2023-07-13T20:46:27;7.55;;;3.20;;
54745;SDS011;40640;48.130;11.356;2023-07-13T20:50:30;8.95;;;3.08;;
54745;SDS011;40640;48.130;11.356;2023-07-13T20:54:34;6.63;;;3.20;;
54745;SDS011;40640;48.130;11.356;2023-07-13T20:58:38;7.85;;;3.78;;
54745;SDS011;40640;48.130;11.356;2023-07-13T21:02:41;10.48;;;3.58;;
54745;SDS011;40640;48.130;11.356;2023-07-13T21:06:44;6.18;;;2.72;;
54745;SDS011;40640;48.130;11.356;2023-07-13T21:10:48;6.03;;;2.88;;
54745;SDS011;40640;48.130;11.356;2023-07-13T21:14:52;6.47;;;3.42;;
54745;SDS011;40640;48.130;11.356;2023-07-13T21:18:55;4.13;;;2.90;;
54745;SDS011;40640;48.130;11.356;2023-07-13T21:22:58;5.68;;;2.78;;
54745;SDS011;40640;48.130;11.356;2023-07-13T21:27:01;12.43;;;7.45;;
54745;SDS011;40640;48.130;11.356;2023-07-13T21:31:07;8.93;;;3.55;;
54745;SDS011;40640;48.130;11.356;2023-07-13T21:35:27;4.50;;;2.90;;
54745;SDS011;40640;48.130;11.356;2023-07-13T21:39:32;5.78;;;2.50;;
54745;SDS011;40640;48.130;11.356;2023-07-13T21:43:35;4.97;;;2.75;;
54745;SDS011;40640;48.130;11.356;2023-07-13T21:47:39;4.93;;;2.50;;
54745;SDS011;40640;48.130;11.356;2023-07-13T21:51:42;5.25;;;2.85;;
54745;SDS011;40640;48.130;11.356;2023-07-13T21:55:45;7.05;;;3.67;;
54745;SDS011;40640;48.130;11.356;2023-07-13T21:59:49;6.05;;;2.97;;
54745;SDS011;40640;48.130;11.356;2023-07-13T22:03:55;4.05;;;2.70;;
54745;SDS011;40640;48.130;11.356;2023-07-13T22:07:59;3.78;;;2.28;;
54745;SDS011;40640;48.130;11.356;2023-07-13T22:12:02;5.68;;;2.70;;
54745;SDS011;40640;48.130;11.356;2023-07-13T22:16:06;4.18;;;2.63;;
54745;SDS011;40640;48.130;11.356;2023-07-13T22:20:19;6.63;;;2.60;;
54745;SDS011;40640;48.130;11.356;2023-07-13T22:24:24;3.97;;;2.67;;
54745;SDS011;40640;48.130;11.356;2023-07-13T22:28:27;4.15;;;2.63;;
54745;SDS011;40640;48.130;11.356;2023-07-13T22:32:30;4.82;;;2.60;;
54745;SDS011;40640;48.130;11.356;2023-07-13T22:36:34;6.90;;;2.72;;
54745;SDS011;40640;48.130;11.356;2023-07-13T22:40:37;8.02;;;3.08;;
54745;SDS011;40640;48.130;11.356;2023-07-13T22:44:40;5.35;;;3.08;;
54745;SDS011;40640;48.130;11.356;2023-07-13T22:48:54;3.50;;;2.90;;
54745;SDS011;40640;48.130;11.356;2023-07-13T22:53:00;5.00;;;2.90;;
54745;SDS011;40640;48.130;11.356;2023-07-13T22:57:03;6.30;;;3.30;;
54745;SDS011;40640;48.130;11.356;2023-07-13T23:01:09;8.30;;;2.80;;
54745;SDS011;40640;48.130;11.356;2023-07-13T23:05:17;4.63;;;3.05;;
54745;SDS011;40640;48.130;11.356;2023-07-13T23:09:23;3.17;;;2.65;;
54745;SDS011;40640;48.130;11.356;2023-07-13T23:13:27;4.68;;;2.83;;
54745;SDS011;40640;48.130;11.356;2023-07-13T23:17:30;8.80;;;3.10;;
54745;SDS011;40640;48.130;11.356;2023-07-13T23:21:33;6.70;;;2.72;;
54745;SDS011;40640;48.130;11.356;2023-07-13T23:25:37;7.03;;;2.67;;
54745;SDS011;40640;48.130;11.356;2023-07-13T23:29:41;5.20;;;2.60;;
54745;SDS011;40640;48.130;11.356;2023-07-13T23:33:43;12.75;;;2.78;;
54745;SDS011;40640;48.130;11.356;2023-07-13T23:37:46;4.85;;;2.42;;
54745;SDS011;40640;48.130;11.356;2023-07-13T23:41:51;10.15;;;3.08;;
54745;SDS011;40640;48.130;11.356;2023-07-13T23:45:53;10.43;;;3.00;;
54745;SDS011;40640;48.130;11.356;2023-07-13T23:49:56;4.53;;;2.65;;
54745;SDS011;40640;48.130;11.356;2023-07-13T23:53:59;4.70;;;2.53;;
54745;SDS011;40640;48.130;11.356;2023-07-13T23:58:05;5.60;;;2.92;;
